Time;durP1;ratioP1;P1;durP2;ratioP2;P2;SDS_P1;SDS_P2;PMS_P1;PMS_P2;Temp;Humidity;BMP_temperature;BMP_pressure;BME280_temperature;BME280_humidity;BME280_pressure;Samples;Min_cycle;Max_cycle;Signal;HPM_P1;HPM_P2
2021/04/01 00:01:11;;;;;;;6.75;3.03;;;21.50;37.40;;;;;;5074553;28;20025;-65
2021/04/01 00:03:39;;;;;;;5.90;2.80;;;21.50;37.50;;;;;;5074246;28;20024;-64
2021/04/01 00:06:04;;;;;;;5.95;3.05;;;21.40;37.50;;;;;;5073995;28;20534;-65
2021/04/01 00:08:30;;;;;;;6.63;2.97;;;21.40;37.50;;;;;;5074322;28;20021;-65
2021/04/01 00:10:56;;;;;;;7.00;3.20;;;21.40;37.50;;;;;;5073919;28;20032;-65
2021/04/01 00:13:22;;;;;;;6.00;3.05;;;21.40;37.50;;;;;;5074230;28;20091;-65
2021/04/01 00:15:48;;;;;;;7.28;2.80;;;21.50;37.50;;;;;;5073992;28;20115;-64
2021/04/01 00:18:18;;;;;;;6.40;3.50;;;21.40;37.50;;;;;;5074215;28;20492;-65
2021/04/01 00:20:44;;;;;;;7.32;3.20;;;21.40;37.50;;;;;;5073836;28;20135;-65
2021/04/01 00:23:09;;;;;;;6.90;3.47;;;21.50;37.50;;;;;;5073624;28;20099;-65
2021/04/01 00:25:35;;;;;;;7.07;3.78;;;21.40;37.50;;;;;;5073501;28;20044;-65
2021/04/01 00:28:01;;;;;;;9.93;3.80;;;21.40;37.50;;;;;;5073894;28;20036;-65
2021/04/01 00:30:26;;;;;;;6.95;3.75;;;21.40;37.50;;;;;;5073474;28;20504;-65
2021/04/01 00:32:52;;;;;;;6.60;3.33;;;21.40;37.50;;;;;;5074009;28;20029;-65
2021/04/01 00:35:17;;;;;;;8.23;3.60;;;21.40;37.60;;;;;;5073604;28;20028;-66
2021/04/01 00:37:43;;;;;;;7.32;3.78;;;21.40;37.60;;;;;;5073912;28;20427;-66
2021/04/01 00:40:09;;;;;;;7.35;3.28;;;21.40;37.60;;;;;;5073532;28;20024;-66
2021/04/01 00:42:35;;;;;;;6.57;3.40;;;21.40;37.60;;;;;;5073893;28;20028;-66
2021/04/01 00:45:07;;;;;;;9.23;3.95;;;21.40;37.60;;;;;;5073924;28;20037;-66
2021/04/01 00:47:37;;;;;;;7.20;3.65;;;21.40;37.60;;;;;;5073705;28;20013;-66
2021/04/01 00:50:05;;;;;;;7.57;4.03;;;21.30;37.60;;;;;;5073421;28;20048;-67
2021/04/01 00:52:31;;;;;;;6.95;3.67;;;21.30;37.60;;;;;;5073408;28;20028;-65
2021/04/01 00:54:56;;;;;;;7.30;3.42;;;21.40;37.60;;;;;;5073526;28;20020;-65
2021/04/01 00:57:22;;;;;;;9.05;4.20;;;21.30;37.60;;;;;;5075555;28;20492;-65
2021/04/01 00:59:48;;;;;;;7.30;3.72;;;21.30;37.60;;;;;;5075787;28;20028;-65
2021/04/01 01:02:13;;;;;;;6.38;3.55;;;21.30;37.60;;;;;;5074450;28;20357;-65
2021/04/01 01:04:40;;;;;;;7.03;3.80;;;21.30;37.60;;;;;;5073892;28;20487;-65
2021/04/01 01:07:06;;;;;;;8.85;4.10;;;21.30;37.70;;;;;;5089745;28;20032;-65
2021/04/01 01:09:31;;;;;;;7.53;3.83;;;21.30;37.70;;;;;;5074202;28;20025;-65
2021/04/01 01:11:57;;;;;;;9.32;4.18;;;21.30;37.70;;;;;;5073671;28;20029;-65
2021/04/01 01:14:22;;;;;;;6.38;3.25;;;21.30;37.60;;;;;;5073426;28;20492;-64
2021/04/01 01:16:48;;;;;;;8.13;3.80;;;21.30;37.70;;;;;;5073404;28;20111;-64
2021/04/01 01:19:15;;;;;;;7.32;3.72;;;21.30;37.70;;;;;;5073135;28;20036;-64
2021/04/01 01:21:41;;;;;;;7.65;3.72;;;21.30;37.70;;;;;;5073221;28;20115;-66
2021/04/01 01:24:19;;;;;;;7.35;3.60;;;21.30;37.70;;;;;;5073257;28;20059;-65
2021/04/01 01:26:46;;;;;;;7.05;3.67;;;21.30;37.70;;;;;;5073132;28;20036;-65
2021/04/01 01:29:12;;;;;;;8.80;4.03;;;21.30;37.70;;;;;;5073463;28;20460;-65
2021/04/01 01:31:44;;;;;;;8.30;4.53;;;21.30;37.70;;;;;;5072889;28;20051;-65
2021/04/01 01:34:10;;;;;;;8.68;3.65;;;21.30;37.70;;;;;;5071669;28;20027;-64
2021/04/01 01:36:35;;;;;;;7.57;3.53;;;21.30;37.80;;;;;;5073097;28;20107;-65
2021/04/01 01:39:01;;;;;;;8.93;4.03;;;21.30;37.70;;;;;;5073099;28;20358;-65
2021/04/01 01:41:27;;;;;;;9.07;4.05;;;21.30;37.70;;;;;;5073589;28;20020;-65
2021/04/01 01:43:55;;;;;;;7.90;3.10;;;21.30;37.70;;;;;;5079273;28;20028;-65
2021/04/01 01:46:20;;;;;;;7.43;4.13;;;21.30;37.70;;;;;;5073236;28;20113;-64
2021/04/01 01:48:46;;;;;;;7.03;4.05;;;21.30;37.80;;;;;;5073337;28;20422;-65
2021/04/01 01:51:11;;;;;;;6.63;3.75;;;21.20;37.80;;;;;;5073324;28;20020;-64
2021/04/01 01:53:37;;;;;;;7.97;4.00;;;21.20;37.80;;;;;;5072537;28;20021;-64
2021/04/01 01:56:03;;;;;;;8.10;3.85;;;21.20;37.80;;;;;;5073082;28;20082;-64
2021/04/01 01:58:28;;;;;;;8.55;4.10;;;21.20;37.80;;;;;;5074803;28;20357;-65
2021/04/01 02:00:57;;;;;;;7.35;4.20;;;21.30;37.80;;;;;;5076975;28;20079;-65
2021/04/01 02:03:23;;;;;;;8.27;4.10;;;21.30;37.80;;;;;;5075541;28;20020;-65
2021/04/01 02:05:49;;;;;;;8.88;4.20;;;21.20;37.80;;;;;;5076649;28;20036;-65
2021/04/01 02:08:15;;;;;;;9.20;4.28;;;21.20;37.80;;;;;;5076587;28;20026;-65
2021/04/01 02:10:49;;;;;;;6.88;3.75;;;21.20;37.80;;;;;;5076622;28;20047;-65
2021/04/01 02:13:17;;;;;;;8.32;4.28;;;21.20;37.80;;;;;;5076564;28;20473;-64
2021/04/01 02:15:44;;;;;;;7.55;3.85;;;21.20;37.80;;;;;;5076284;28;20028;-64
2021/04/01 02:18:12;;;;;;;8.57;3.90;;;21.30;37.90;;;;;;5076484;28;20028;-64
2021/04/01 02:20:45;;;;;;;10.32;4.25;;;21.20;37.80;;;;;;5076314;28;20045;-65
2021/04/01 02:23:16;;;;;;;6.95;3.75;;;21.30;37.90;;;;;;5076738;28;20091;-65
2021/04/01 02:25:43;;;;;;;7.32;4.00;;;21.20;37.90;;;;;;5076888;28;20047;-65
2021/04/01 02:28:10;;;;;;;8.00;3.95;;;21.20;37.90;;;;;;5077149;28;20024;-65
2021/04/01 02:30:38;;;;;;;7.10;3.80;;;21.20;37.90;;;;;;5076855;28;20029;-66
2021/04/01 02:33:04;;;;;;;7.55;4.38;;;21.20;37.90;;;;;;5086105;28;20464;-66
2021/04/01 02:35:30;;;;;;;7.07;4.00;;;21.20;37.90;;;;;;5078611;28;20028;-66
2021/04/01 02:37:56;;;;;;;8.02;4.40;;;21.20;37.90;;;;;;5076503;28;20080;-65
2021/04/01 02:40:22;;;;;;;7.63;4.10;;;21.20;37.90;;;;;;5076379;28;20063;-66
2021/04/01 02:42:48;;;;;;;7.10;3.92;;;21.20;37.90;;;;;;5076599;28;20028;-65
2021/04/01 02:45:14;;;;;;;8.98;3.80;;;21.20;37.90;;;;;;5076630;28;20128;-65
2021/04/01 02:47:40;;;;;;;7.78;4.80;;;21.20;37.90;;;;;;5077166;28;20025;-65
2021/04/01 02:50:07;;;;;;;8.15;4.15;;;21.20;37.90;;;;;;5083474;28;20024;-64
2021/04/01 02:52:33;;;;;;;6.82;4.15;;;21.20;37.90;;;;;;5076378;28;20063;-64
2021/04/01 02:54:59;;;;;;;6.60;3.80;;;21.20;37.90;;;;;;5076117;28;20025;-65
2021/04/01 02:57:25;;;;;;;7.07;3.92;;;21.20;38.00;;;;;;5074369;28;20027;-64
2021/04/01 02:59:51;;;;;;;7.28;4.10;;;21.20;37.90;;;;;;5075945;28;20032;-65
2021/04/01 03:02:18;;;;;;;8.93;4.50;;;21.20;37.90;;;;;;5075877;28;20154;-64
2021/04/01 03:04:44;;;;;;;7.10;3.83;;;21.20;38.00;;;;;;5075648;28;20548;-64
2021/04/01 03:07:09;;;;;;;8.18;4.30;;;21.20;38.00;;;;;;5075722;28;20028;-64
2021/04/01 03:09:36;;;;;;;8.15;4.50;;;21.20;38.00;;;;;;5075475;28;20376;-64
2021/04/01 03:12:03;;;;;;;9.18;4.22;;;21.20;38.00;;;;;;5075461;28;20026;-65
2021/04/01 03:14:29;;;;;;;7.10;4.38;;;21.20;38.00;;;;;;5075345;28;20542;-65
2021/04/01 03:16:54;;;;;;;8.40;4.30;;;21.20;38.00;;;;;;5075079;28;20032;-65
2021/04/01 03:19:20;;;;;;;8.30;4.55;;;21.20;38.00;;;;;;5075330;28;20033;-64
2021/04/01 03:21:46;;;;;;;9.70;4.13;;;21.20;38.00;;;;;;5075324;28;20044;-65
2021/04/01 03:24:13;;;;;;;8.43;4.63;;;21.10;38.00;;;;;;5075444;28;20025;-65
2021/04/01 03:26:39;;;;;;;8.75;4.15;;;21.20;38.10;;;;;;5075248;28;20063;-65
2021/04/01 03:29:04;;;;;;;7.30;4.13;;;21.20;38.00;;;;;;5075394;28;20024;-65
2021/04/01 03:31:30;;;;;;;7.75;4.22;;;21.10;38.00;;;;;;5075267;28;20031;-65
2021/04/01 03:33:55;;;;;;;7.90;4.13;;;21.20;38.00;;;;;;5075205;28;20028;-66
2021/04/01 03:36:21;;;;;;;9.20;3.88;;;21.10;38.10;;;;;;5075094;28;20036;-66
2021/04/01 03:38:47;;;;;;;8.48;4.18;;;21.10;38.10;;;;;;5074897;28;20020;-65
2021/04/01 03:41:13;;;;;;;7.88;4.05;;;21.10;38.10;;;;;;5075344;28;20357;-65
2021/04/01 03:43:39;;;;;;;9.05;4.70;;;21.20;38.10;;;;;;5075274;28;20023;-65
2021/04/01 03:46:06;;;;;;;7.68;4.18;;;21.10;38.10;;;;;;5074455;28;20036;-65
2021/04/01 03:48:31;;;;;;;8.27;4.25;;;21.10;38.10;;;;;;5074452;28;20017;-65
2021/04/01 03:50:57;;;;;;;10.85;4.55;;;21.10;38.10;;;;;;5074593;28;20357;-65
2021/04/01 03:53:22;;;;;;;9.15;4.70;;;21.10;38.10;;;;;;5074246;28;20021;-66
2021/04/01 03:55:49;;;;;;;8.70;4.18;;;21.20;38.10;;;;;;5074263;28;20052;-65
2021/04/01 04:00:47;;;;;;;7.55;4.22;;;21.20;38.10;;;;;;5074513;28;20052;-64
2021/04/01 04:10:57;;;;;;;7.63;4.22;;;21.10;38.10;;;;;;5074047;28;20027;-65
2021/04/01 04:13:29;;;;;;;7.88;4.18;;;21.10;38.10;;;;;;5074577;28;20025;-65
2021/04/01 04:15:55;;;;;;;7.60;4.25;;;21.10;38.10;;;;;;5072959;28;20357;-65
2021/04/01 04:18:21;;;;;;;8.48;4.68;;;21.10;38.20;;;;;;5074101;28;20035;-65
2021/04/01 04:20:47;;;;;;;8.13;4.68;;;21.20;38.20;;;;;;5073396;28;20127;-66
2021/04/01 04:23:15;;;;;;;10.57;4.40;;;21.20;38.10;;;;;;5073884;28;20016;-66
2021/04/01 04:25:40;;;;;;;7.95;4.57;;;21.10;38.10;;;;;;5073838;28;20082;-66
2021/04/01 04:28:18;;;;;;;8.52;4.60;;;21.20;38.20;;;;;;5074127;28;20016;-65
2021/04/01 04:30:44;;;;;;;8.77;4.15;;;21.20;38.20;;;;;;5072686;28;20087;-65
2021/04/01 04:33:10;;;;;;;7.65;4.28;;;21.20;38.20;;;;;;5074015;28;20488;-64
2021/04/01 04:35:36;;;;;;;8.50;4.90;;;21.20;38.10;;;;;;5073919;28;20100;-64
2021/04/01 04:38:02;;;;;;;8.30;4.53;;;21.20;38.20;;;;;;5074010;28;20460;-65
2021/04/01 04:40:27;;;;;;;6.85;4.07;;;21.20;38.20;;;;;;5073722;28;20032;-64
2021/04/01 04:42:53;;;;;;;9.15;4.30;;;21.20;38.20;;;;;;5074025;28;20016;-64
2021/04/01 04:45:19;;;;;;;7.70;4.20;;;21.20;38.20;;;;;;5073412;28;20033;-64
2021/04/01 04:47:44;;;;;;;12.32;4.82;;;21.20;38.20;;;;;;5073710;28;20119;-65
2021/04/01 04:50:10;;;;;;;7.55;4.15;;;21.20;38.10;;;;;;5073822;28;20364;-65
2021/04/01 04:52:37;;;;;;;8.18;4.30;;;21.20;38.20;;;;;;5073505;28;20112;-64
2021/04/01 04:55:05;;;;;;;7.68;4.35;;;21.20;38.20;;;;;;5073547;28;20020;-64
2021/04/01 05:05:25;;;;;;;8.07;4.35;;;21.20;38.20;;;;;;5073669;28;20129;-64
2021/04/01 05:07:51;;;;;;;9.18;4.93;;;21.20;38.20;;;;;;5073391;28;20468;-65
2021/04/01 05:10:16;;;;;;;8.50;4.35;;;21.20;38.20;;;;;;5073345;28;20036;-65
2021/04/01 05:12:43;;;;;;;8.13;4.55;;;21.20;38.20;;;;;;5073638;28;20081;-65
2021/04/01 05:15:10;;;;;;;7.90;4.50;;;21.20;38.20;;;;;;5073027;28;20016;-65
2021/04/01 05:17:35;;;;;;;7.57;4.20;;;21.20;38.20;;;;;;5073549;28;20028;-65
2021/04/01 05:20:06;;;;;;;7.45;4.43;;;21.20;38.20;;;;;;5073116;28;20090;-65
2021/04/01 05:22:39;;;;;;;8.27;4.70;;;21.20;38.20;;;;;;5073269;28;20028;-65
2021/04/01 05:25:06;;;;;;;8.60;4.80;;;21.20;38.20;;;;;;5073047;28;20036;-65
2021/04/01 05:27:39;;;;;;;8.95;4.50;;;21.20;38.20;;;;;;5073145;28;20021;-66
2021/04/01 05:30:05;;;;;;;9.93;4.95;;;21.20;38.30;;;;;;5073256;28;20503;-65
2021/04/01 05:32:35;;;;;;;7.80;4.40;;;21.20;38.30;;;;;;5073319;28;20036;-65
2021/04/01 05:35:06;;;;;;;7.93;4.07;;;21.20;38.30;;;;;;5077459;28;20024;-65
2021/04/01 05:37:31;;;;;;;7.57;4.43;;;21.20;38.30;;;;;;5077196;28;20086;-66
2021/04/01 05:39:58;;;;;;;8.07;4.30;;;21.20;38.20;;;;;;5077339;28;20020;-65
2021/04/01 05:42:26;;;;;;;9.55;4.53;;;21.20;38.20;;;;;;5076928;28;20476;-65
2021/04/01 05:45:02;;;;;;;8.50;4.75;;;21.20;38.20;;;;;;5077331;28;20078;-65
2021/04/01 05:47:35;;;;;;;8.70;4.25;;;21.20;38.30;;;;;;5076897;28;20025;-65
2021/04/01 05:50:13;;;;;;;6.82;3.83;;;21.20;38.30;;;;;;5077335;28;20020;-66
2021/04/01 05:59:03;;;;;;;8.65;4.65;;;21.20;38.30;;;;;;5034621;28;20025;-65
2021/04/01 06:01:45;;;;;;;7.43;4.28;;;21.20;38.30;;;;;;5076530;28;20079;-65
2021/04/01 06:04:27;;;;;;;8.27;4.25;;;21.20;38.30;;;;;;5076727;28;20024;-65
2021/04/01 06:07:05;;;;;;;9.02;4.70;;;21.20;38.30;;;;;;5076883;28;20036;-65
2021/04/01 06:09:36;;;;;;;7.90;4.25;;;21.20;38.30;;;;;;5076666;28;20028;-65
2021/04/01 06:12:02;;;;;;;7.75;4.55;;;21.20;38.30;;;;;;5076417;28;20103;-65
2021/04/01 06:14:34;;;;;;;8.38;4.40;;;21.20;38.30;;;;;;5076891;28;20017;-65
2021/04/01 06:17:10;;;;;;;7.40;3.97;;;21.30;38.30;;;;;;5076552;28;20062;-65
2021/04/01 06:19:37;;;;;;;8.38;4.47;;;21.20;38.30;;;;;;5077130;28;20035;-65
2021/04/01 06:22:05;;;;;;;8.40;4.68;;;21.30;38.30;;;;;;5076321;28;20149;-66
2021/04/01 06:24:32;;;;;;;8.57;4.10;;;21.30;38.30;;;;;;5076708;28;20024;-66
2021/04/01 06:27:18;;;;;;;9.10;4.85;;;21.30;38.30;;;;;;5076302;28;20036;-66
2021/04/01 06:33:12;;;;;;;10.50;3.78;;;21.30;38.30;;;;;;5034065;28;20249;-66
2021/04/01 06:35:52;;;;;;;8.75;4.28;;;21.30;38.30;;;;;;5033942;28;20037;-66
2021/04/01 06:38:28;;;;;;;8.63;4.65;;;21.30;38.30;;;;;;5064238;28;20039;-66
2021/04/01 06:41:04;;;;;;;8.25;4.15;;;21.30;38.30;;;;;;5075677;28;20369;-66
2021/04/01 06:43:58;;;;;;;7.28;4.28;;;21.30;38.30;;;;;;5075967;28;20537;-65
2021/04/01 06:46:26;;;;;;;7.78;4.10;;;21.30;38.30;;;;;;5076647;28;20043;-65
2021/04/01 06:49:24;;;;;;;9.05;4.53;;;21.30;38.30;;;;;;5076075;28;20032;-65
2021/04/01 06:52:03;;;;;;;7.45;4.10;;;21.30;38.30;;;;;;5075977;28;20451;-66
2021/04/01 07:00:18;;;;;;;8.57;4.78;;;21.30;38.30;;;;;;5076076;28;20032;-64
2021/04/01 07:03:06;;;;;;;7.43;3.90;;;21.30;38.30;;;;;;5076980;28;20116;-65
2021/04/01 07:05:49;;;;;;;8.13;4.30;;;21.40;38.30;;;;;;5084393;28;20088;-65
2021/04/01 07:08:19;;;;;;;8.20;4.15;;;21.30;38.30;;;;;;5078135;28;20086;-64
2021/04/01 07:11:10;;;;;;;7.32;3.88;;;21.40;38.30;;;;;;5073676;28;20484;-67
2021/04/01 07:13:42;;;;;;;8.65;4.07;;;21.40;38.20;;;;;;5074431;28;20033;-67
2021/04/01 07:16:13;;;;;;;9.15;4.57;;;21.40;38.20;;;;;;5074579;28;20029;-63
2021/04/01 07:19:00;;;;;;;8.60;4.22;;;21.40;38.20;;;;;;5092197;28;20024;-67
2021/04/01 07:22:25;;;;;;;7.32;3.63;;;21.40;38.20;;;;;;5094121;28;20111;-69
2021/04/01 07:33:02;;;;;;;7.63;3.95;;;21.50;38.20;;;;;;5094928;28;20149;-65
2021/04/01 07:48:49;;;;;;;8.07;4.07;;;21.50;38.20;;;;;;5073949;28;20028;-67
2021/04/01 07:54:11;;;;;;;8.68;4.75;;;21.50;38.20;;;;;;5074272;28;20024;-67
2021/04/01 07:56:52;;;;;;;9.05;4.30;;;21.50;38.20;;;;;;5072896;28;20560;-68
2021/04/01 08:02:35;;;;;;;7.20;3.95;;;21.50;38.20;;;;;;5073055;28;20499;-66
2021/04/01 08:05:02;;;;;;;8.27;4.38;;;21.60;38.20;;;;;;5073464;28;20065;-66
2021/04/01 08:07:31;;;;;;;8.05;4.53;;;21.60;38.20;;;;;;5073509;28;20025;-67
2021/04/01 08:10:05;;;;;;;7.95;4.18;;;21.50;38.20;;;;;;5073149;28;20430;-66
2021/04/01 08:12:42;;;;;;;7.22;4.00;;;21.60;38.20;;;;;;5072730;28;20051;-67
2021/04/01 08:15:15;;;;;;;8.15;3.90;;;21.60;38.20;;;;;;5073543;28;20542;-66
2021/04/01 08:20:44;;;;;;;7.82;4.15;;;21.60;38.20;;;;;;5038838;28;20366;-67
2021/04/01 08:23:19;;;;;;;8.40;4.30;;;21.60;38.30;;;;;;5072718;28;20035;-67
2021/04/01 08:26:04;;;;;;;8.88;4.60;;;21.60;38.30;;;;;;5073449;28;20040;-68
2021/04/01 08:36:41;;;;;;;8.55;4.65;;;21.70;38.30;;;;;;5072579;28;20506;-68
2021/04/01 08:39:07;;;;;;;9.15;4.38;;;21.70;38.30;;;;;;5072456;28;20422;-69
2021/04/01 08:41:36;;;;;;;8.30;4.40;;;21.70;38.40;;;;;;5072544;28;20469;-69
2021/04/01 08:44:29;;;;;;;8.90;4.40;;;21.60;38.30;;;;;;5072008;28;20025;-68
2021/04/01 08:47:19;;;;;;;9.32;3.85;;;21.70;38.30;;;;;;5072472;28;20080;-68
2021/04/01 08:50:11;;;;;;;7.75;3.90;;;21.70;38.30;;;;;;5072601;28;20111;-68
2021/04/01 08:53:00;;;;;;;9.00;4.25;;;21.70;38.30;;;;;;5075157;28;20085;-66
2021/04/01 08:55:40;;;;;;;8.57;3.83;;;21.70;38.40;;;;;;5092375;28;20030;-66
2021/04/01 08:58:26;;;;;;;7.07;4.15;;;21.70;38.30;;;;;;5092687;28;20425;-65
2021/04/01 09:01:07;;;;;;;7.68;3.70;;;21.70;38.40;;;;;;5091463;28;20031;-67
2021/04/01 09:03:36;;;;;;;7.80;3.97;;;21.80;38.30;;;;;;5092926;28;20031;-66
2021/04/01 09:06:04;;;;;;;8.25;3.72;;;21.70;38.30;;;;;;5092039;28;20036;-66
2021/04/01 09:08:32;;;;;;;8.07;3.72;;;21.70;38.30;;;;;;5092674;28;20353;-66
2021/04/01 09:11:00;;;;;;;8.40;4.00;;;21.70;38.30;;;;;;5092548;28;20016;-64
2021/04/01 09:13:33;;;;;;;8.82;4.07;;;21.80;38.30;;;;;;5092372;28;20016;-65
2021/04/01 09:16:10;;;;;;;7.90;4.33;;;21.80;38.40;;;;;;5092327;28;20020;-66
2021/04/01 09:18:37;;;;;;;9.07;4.22;;;21.80;38.30;;;;;;5092472;28;20075;-67
2021/04/01 09:21:04;;;;;;;7.45;3.63;;;21.80;38.30;;;;;;5092361;28;20178;-67
2021/04/01 09:23:47;;;;;;;8.60;3.72;;;21.80;38.30;;;;;;5092521;28;20076;-66
2021/04/01 09:26:14;;;;;;;8.30;3.90;;;21.80;38.30;;;;;;5091925;28;20156;-66
2021/04/01 09:28:42;;;;;;;6.03;2.97;;;21.80;38.30;;;;;;5092710;28;20425;-66
2021/04/01 09:31:13;;;;;;;7.05;3.42;;;21.80;38.30;;;;;;5091854;28;20073;-67
2021/04/01 09:33:40;;;;;;;6.18;3.22;;;21.80;38.30;;;;;;5092531;28;20024;-67
2021/04/01 09:36:21;;;;;;;7.07;3.47;;;21.90;38.30;;;;;;5091818;28;20396;-66
2021/04/01 09:38:52;;;;;;;6.72;3.30;;;21.90;38.40;;;;;;5090357;28;20024;-65
2021/04/01 09:41:30;;;;;;;7.43;3.65;;;21.90;38.30;;;;;;5080533;28;20021;-66
2021/04/01 09:43:56;;;;;;;6.10;3.17;;;21.90;38.40;;;;;;5072179;28;20032;-67
2021/04/01 09:46:23;;;;;;;7.20;3.50;;;21.90;38.30;;;;;;5072008;28;20508;-65
2021/04/01 09:49:17;;;;;;;7.95;3.60;;;21.90;38.30;;;;;;5071149;28;20401;-64
2021/04/01 09:51:53;;;;;;;7.20;3.75;;;21.90;38.30;;;;;;5070019;28;20056;-68
2021/04/01 09:54:19;;;;;;;6.60;3.45;;;22.00;38.30;;;;;;5072172;28;20059;-72
2021/04/01 09:56:58;;;;;;;8.18;3.75;;;22.00;38.20;;;;;;5071816;28;20052;-73
2021/04/01 09:59:41;;;;;;;8.50;3.72;;;22.00;38.30;;;;;;5071191;28;20089;-71
2021/04/01 10:02:14;;;;;;;7.60;3.70;;;21.90;38.30;;;;;;5071895;28;20035;-72
2021/04/01 10:04:44;;;;;;;9.13;4.18;;;22.00;38.30;;;;;;5070950;28;20108;-72
2021/04/01 10:07:15;;;;;;;7.85;4.07;;;22.00;38.30;;;;;;5072392;28;20043;-74
2021/04/01 10:09:51;;;;;;;7.10;3.50;;;22.00;38.30;;;;;;5071044;28;20036;-73
2021/04/01 10:12:21;;;;;;;7.32;3.63;;;22.00;38.40;;;;;;5071790;28;20425;-73
2021/04/01 10:14:53;;;;;;;7.72;3.88;;;22.00;38.30;;;;;;5071506;28;20016;-73
2021/04/01 10:17:21;;;;;;;8.05;3.50;;;22.00;38.20;;;;;;5071855;28;20036;-73
2021/04/01 10:19:54;;;;;;;6.47;3.30;;;22.10;38.30;;;;;;5072925;28;20066;-73
2021/04/01 10:22:28;;;;;;;6.40;3.55;;;22.00;38.30;;;;;;5075474;28;20127;-74
2021/04/01 10:25:26;;;;;;;6.78;3.20;;;22.00;38.30;;;;;;5075746;28;20071;-73
2021/04/01 10:28:13;;;;;;;7.22;3.65;;;22.00;38.30;;;;;;5075466;28;20039;-72
2021/04/01 10:30:39;;;;;;;7.57;3.63;;;22.10;38.20;;;;;;5074624;28;20116;-74
2021/04/01 10:33:23;;;;;;;6.30;3.22;;;22.10;38.30;;;;;;5075116;28;20127;-72
2021/04/01 10:35:54;;;;;;;7.32;3.30;;;22.10;38.30;;;;;;5075162;28;20096;-73
2021/04/01 10:38:20;;;;;;;6.82;3.20;;;22.10;38.20;;;;;;5075036;28;20029;-75
2021/04/01 10:40:50;;;;;;;7.75;3.67;;;22.20;38.20;;;;;;5074639;28;20090;-72
2021/04/01 10:43:19;;;;;;;7.07;3.38;;;22.20;38.20;;;;;;5074738;28;20094;-68
2021/04/01 10:45:46;;;;;;;6.60;3.20;;;22.20;38.10;;;;;;5074904;28;20040;-72
2021/04/01 10:48:53;;;;;;;8.93;3.60;;;22.20;38.10;;;;;;5082958;28;20028;-73
2021/04/01 10:51:21;;;;;;;9.45;3.92;;;22.30;38.10;;;;;;5011540;28;20100;-70
2021/04/01 10:53:47;;;;;;;7.22;3.40;;;22.30;38.00;;;;;;5012535;28;20040;-70
2021/04/01 10:56:14;;;;;;;7.03;3.35;;;22.30;38.10;;;;;;5054226;28;20028;-70
2021/04/01 10:58:51;;;;;;;9.60;3.78;;;22.30;38.00;;;;;;5095428;28;20027;-70
2021/04/01 11:01:20;;;;;;;7.93;3.70;;;22.30;38.00;;;;;;5094350;28;20251;-72
2021/04/01 11:03:50;;;;;;;6.63;3.25;;;22.30;38.00;;;;;;5094852;28;20097;-70
2021/04/01 11:06:17;;;;;;;8.13;3.80;;;22.40;37.90;;;;;;5095315;28;20111;-70
2021/04/01 11:08:44;;;;;;;5.97;3.38;;;22.40;37.90;;;;;;5094386;28;20028;-71
2021/04/01 11:11:11;;;;;;;6.53;3.30;;;22.40;37.90;;;;;;5093261;28;20024;-70
2021/04/01 11:13:46;;;;;;;7.18;3.30;;;22.40;37.90;;;;;;5093864;28;20028;-70
2021/04/01 11:16:14;;;;;;;6.93;3.28;;;22.40;37.90;;;;;;5093652;28;20039;-71
2021/04/01 11:18:45;;;;;;;7.15;3.08;;;22.50;37.90;;;;;;5092939;28;20024;-73
2021/04/01 11:21:13;;;;;;;6.57;2.97;;;22.50;37.90;;;;;;5092803;28;20131;-72
2021/04/01 11:23:38;;;;;;;5.88;2.90;;;22.50;37.80;;;;;;5093656;28;20376;-74
2021/04/01 11:26:05;;;;;;;5.65;2.80;;;22.50;37.80;;;;;;5094357;28;20036;-75
2021/04/01 11:28:44;;;;;;;7.25;3.70;;;22.50;37.70;;;;;;5093021;28;20115;-74
2021/04/01 11:31:30;;;;;;;6.18;2.88;;;22.60;37.70;;;;;;5091912;28;20384;-74
2021/04/01 11:33:57;;;;;;;7.95;3.13;;;22.60;37.70;;;;;;5093240;28;20492;-74
2021/04/01 11:36:25;;;;;;;7.32;3.17;;;22.60;37.70;;;;;;5094308;28;20028;-75
2021/04/01 11:38:56;;;;;;;6.63;3.20;;;22.60;37.70;;;;;;5094233;28;20084;-75
2021/04/01 11:41:23;;;;;;;6.93;3.38;;;22.70;37.60;;;;;;5094234;28;20016;-75
2021/04/01 11:43:54;;;;;;;8.30;3.35;;;22.70;37.60;;;;;;5093756;28;20111;-75
2021/04/01 11:46:21;;;;;;;5.60;2.80;;;22.70;37.60;;;;;;5093616;28;20400;-75
2021/04/01 11:48:50;;;;;;;5.50;3.00;;;22.70;37.70;;;;;;5093747;28;20122;-75
2021/04/01 11:51:30;;;;;;;7.07;3.50;;;22.70;37.60;;;;;;5093740;28;20114;-75
2021/04/01 11:53:56;;;;;;;6.43;3.20;;;22.80;37.50;;;;;;5094100;28;20028;-74
2021/04/01 11:56:24;;;;;;;5.95;3.10;;;22.80;37.50;;;;;;5093432;28;20039;-76
2021/04/01 11:58:51;;;;;;;6.40;3.15;;;22.80;37.50;;;;;;5093866;28;20097;-75
2021/04/01 12:01:25;;;;;;;5.57;2.85;;;22.80;37.50;;;;;;5093558;28;20339;-75
2021/04/01 12:04:04;;;;;;;7.20;2.97;;;22.90;37.40;;;;;;5093801;28;20182;-76
2021/04/01 12:06:30;;;;;;;6.03;3.00;;;22.90;37.40;;;;;;5092945;28;20055;-76
2021/04/01 12:08:57;;;;;;;5.80;2.75;;;22.90;37.40;;;;;;5093490;28;20100;-75
2021/04/01 12:11:27;;;;;;;6.88;3.28;;;23.00;37.40;;;;;;5093538;28;20075;-75
2021/04/01 12:13:53;;;;;;;5.75;2.90;;;23.00;37.30;;;;;;5094055;28;20024;-75
2021/04/01 12:16:23;;;;;;;7.10;3.83;;;23.00;37.30;;;;;;5093082;28;20407;-75
2021/04/01 12:18:49;;;;;;;6.22;2.53;;;23.00;37.20;;;;;;5093432;28;20012;-76
2021/04/01 12:21:16;;;;;;;6.03;3.05;;;23.10;37.20;;;;;;5093187;28;20503;-75
2021/04/01 12:23:45;;;;;;;7.22;3.50;;;23.10;37.20;;;;;;5093661;28;20552;-76
2021/04/01 12:26:11;;;;;;;5.93;3.38;;;23.10;37.10;;;;;;5093658;28;20438;-75
2021/04/01 12:28:37;;;;;;;5.78;3.30;;;23.10;37.10;;;;;;5092253;28;20050;-76
2021/04/01 12:31:04;;;;;;;6.68;3.15;;;23.20;37.00;;;;;;5093055;28;20436;-76
2021/04/01 12:33:29;;;;;;;6.13;3.50;;;23.20;37.00;;;;;;5093436;28;20020;-75
2021/04/01 12:36:00;;;;;;;7.60;2.90;;;23.20;36.90;;;;;;5091808;28;20031;-75
2021/04/01 12:38:29;;;;;;;6.45;3.35;;;23.30;36.90;;;;;;5092494;28;20024;-76
2021/04/01 12:41:00;;;;;;;5.75;2.85;;;23.30;36.90;;;;;;5091756;28;20103;-75
2021/04/01 12:43:33;;;;;;;5.63;3.03;;;23.30;36.80;;;;;;5092419;28;20035;-75
2021/04/01 12:45:59;;;;;;;6.60;2.80;;;23.40;36.80;;;;;;5093279;28;20454;-76
2021/04/01 12:48:38;;;;;;;8.95;2.92;;;23.40;36.70;;;;;;5093393;28;20064;-75
2021/04/01 12:51:05;;;;;;;5.00;2.65;;;23.40;36.70;;;;;;5088161;28;20081;-75
2021/04/01 12:53:31;;;;;;;7.20;2.80;;;23.40;36.70;;;;;;5092261;28;20103;-76
2021/04/01 12:56:11;;;;;;;8.13;3.08;;;23.50;36.70;;;;;;5092904;28;20012;-75
2021/04/01 12:58:44;;;;;;;6.03;2.92;;;23.50;36.60;;;;;;5093120;28;20093;-77
2021/04/01 13:01:11;;;;;;;5.18;2.60;;;23.50;36.60;;;;;;5092598;28;20016;-75
2021/04/01 13:03:37;;;;;;;6.00;2.72;;;23.50;36.60;;;;;;5092286;28;20035;-75
2021/04/01 13:06:09;;;;;;;5.30;2.47;;;23.50;36.40;;;;;;5093140;28;20032;-76
2021/04/01 13:11:12;;;;;;;7.28;2.78;;;23.50;36.50;;;;;;5093136;28;20464;-75
2021/04/01 13:13:39;;;;;;;5.78;2.70;;;23.50;36.50;;;;;;5092117;28;20050;-75
2021/04/01 13:16:04;;;;;;;4.88;2.33;;;23.50;36.60;;;;;;5093354;28;20024;-75
2021/04/01 13:18:30;;;;;;;5.88;2.42;;;23.50;36.60;;;;;;5092827;28;20093;-75
2021/04/01 13:20:56;;;;;;;5.28;2.20;;;23.50;36.70;;;;;;5094263;28;20056;-75
2021/04/01 13:23:34;;;;;;;6.40;2.70;;;23.40;36.70;;;;;;5094204;28;20412;-75
2021/04/01 13:26:00;;;;;;;4.00;2.08;;;23.40;36.80;;;;;;5092651;28;20028;-73
2021/04/01 13:28:26;;;;;;;5.45;3.03;;;23.30;36.80;;;;;;5092341;28;20024;-75
2021/04/01 13:31:01;;;;;;;6.55;2.65;;;23.30;36.90;;;;;;5092422;28;20028;-75
2021/04/01 13:33:45;;;;;;;7.57;2.38;;;23.30;36.90;;;;;;5092376;28;20468;-74
2021/04/01 13:36:25;;;;;;;3.83;2.00;;;23.20;36.90;;;;;;5092188;28;20107;-73
2021/04/01 13:38:52;;;;;;;5.63;2.40;;;23.20;37.00;;;;;;5092998;28;20319;-75
2021/04/01 13:41:23;;;;;;;4.55;2.00;;;23.20;37.00;;;;;;5091066;28;20036;-74
2021/04/01 13:43:49;;;;;;;5.10;2.20;;;23.20;37.00;;;;;;5092656;28;20024;-72
2021/04/01 13:46:15;;;;;;;5.40;2.55;;;23.20;37.00;;;;;;5091717;28;20025;-76
2021/04/01 13:48:41;;;;;;;4.82;1.90;;;23.10;37.10;;;;;;5092408;28;20030;-74
2021/04/01 13:51:16;;;;;;;4.65;2.10;;;23.00;37.20;;;;;;5091807;28;20415;-74
2021/04/01 13:53:53;;;;;;;5.55;2.08;;;23.00;37.30;;;;;;5093207;28;20124;-74
2021/04/01 13:56:25;;;;;;;6.95;2.70;;;23.00;37.30;;;;;;5096082;28;20085;-74
2021/04/01 14:08:53;;;;;;;4.60;2.20;;;22.90;37.40;;;;;;5096300;28;20032;-74
2021/04/01 14:09:57;;;;;;;6.82;2.50;;;22.90;37.50;;;;;;5096176;28;20031;-73
2021/04/01 14:12:25;;;;;;;5.32;2.60;;;22.90;37.50;;;;;;5095741;28;20060;-74
2021/04/01 14:14:50;;;;;;;5.97;2.38;;;22.80;37.50;;;;;;5095976;28;20024;-74
2021/04/01 14:17:17;;;;;;;6.30;2.20;;;22.80;37.60;;;;;;5095495;28;20028;-74
2021/04/01 14:19:43;;;;;;;6.90;2.03;;;22.80;37.60;;;;;;5077937;28;20086;-72
2021/04/01 14:22:09;;;;;;;8.77;2.38;;;22.80;37.60;;;;;;5075970;28;20036;-74
2021/04/01 14:24:40;;;;;;;5.97;2.70;;;22.80;37.50;;;;;;5075853;28;20028;-72